Station Historical Data
Daily Summary for February 3, 2018 Units:  Both    English   Metric
« Previous Day
Next Day »
Daily Weekly Monthly Yearly Custom
  High: Low: Average:
Temperature: 33.2 °F /  0.7 °C 14.1 °F /  -9.9 °C 20.9 °F /  -6.2 °C
Dew Point: 20.6 °F /  -6.3 °C 6.3 °F /  -14.3 °C 12 °F /  -11.1 °C
Humidity: 84% 45% 69%
Wind Speed: 17.0mph /  27.4km/h - 6.7mph /  10.8km/h
Wind Gust: 26.0mph /  41.8km/h - -
Wind- - SW
Pressure: 30.33 in /  1027 hPa 29.94 in /  1013.8 hPa -
Precipitation: 0.00 in /  0 mm    
Historical Graphs
 
 
Tabular Data for February 3, 2018
Time Temperature Dew Point Pressure Wind Wind Speed Wind Gust Humidity Rainfall Rate (Hourly)
00:04 14.6 °F /  -9.7 °C 10.1 °F /  -12.2 °C 30.33in /  1027hPa WSW 5.0mph /  8km/h 13.0mph /  20.9km/h 82% 0.00in /  0mm
00:09 14.5 °F /  -9.7 °C 10.0 °F /  -12.2 °C 30.32in /  1026.6hPa SW 6.0mph /  9.7km/h 13.0mph /  20.9km/h 82% 0.00in /  0mm
00:14 14.4 °F /  -9.8 °C 9.9 °F /  -12.3 °C 30.33in /  1027hPa WSW 3.0mph /  4.8km/h 8.0mph /  12.9km/h 82% 0.00in /  0mm
00:19 14.3 °F /  -9.8 °C 9.8 °F /  -12.3 °C 30.32in /  1026.6hPa West 7.0mph /  11.3km/h 9.0mph /  14.5km/h 82% 0.00in /  0mm
00:24 14.2 °F /  -9.9 °C 9.7 °F /  -12.4 °C 30.32in /  1026.6hPa SW 4.0mph /  6.4km/h 9.0mph /  14.5km/h 82% 0.00in /  0mm
00:29 14.1 °F /  -9.9 °C 9.6 °F /  -12.4 °C 30.32in /  1026.6hPa WSW 4.0mph /  6.4km/h 9.0mph /  14.5km/h 82% 0.00in /  0mm
00:34 14.2 °F /  -9.9 °C 9.2 °F /  -12.7 °C 30.32in /  1026.6hPa West 4.0mph /  6.4km/h 8.0mph /  12.9km/h 80% 0.00in /  0mm
00:39 14.2 °F /  -9.9 °C 8.6 °F /  -13 °C 30.32in /  1026.6hPa WSW 6.0mph /  9.7km/h 10.0mph /  16.1km/h 78% 0.00in /  0mm
00:44 14.3 °F /  -9.8 °C 8.1 °F /  -13.3 °C 30.32in /  1026.6hPa WSW 3.0mph /  4.8km/h 7.0mph /  11.3km/h 76% 0.00in /  0mm
00:49 14.6 °F /  -9.7 °C 7.8 °F /  -13.4 °C 30.32in /  1026.6hPa West 4.0mph /  6.4km/h 9.0mph /  14.5km/h 74% 0.00in /  0mm
00:54 14.8 °F /  -9.6 °C 7.4 °F /  -13.7 °C 30.32in /  1026.6hPa West 4.0mph /  6.4km/h 11.0mph /  17.7km/h 72% 0.00in /  0mm
00:59 14.9 °F /  -9.5 °C 7.2 °F /  -13.8 °C 30.31in /  1026.3hPa West 5.0mph /  8km/h 11.0mph /  17.7km/h 71% 0.00in /  0mm
01:04 15.1 °F /  -9.4 °C 7.1 °F /  -13.8 °C 30.31in /  1026.3hPa West 5.0mph /  8km/h 11.0mph /  17.7km/h 70% 0.00in /  0mm
01:09 15.1 °F /  -9.4 °C 6.8 °F /  -14 °C 30.31in /  1026.3hPa West 5.0mph /  8km/h 11.0mph /  17.7km/h 69% 0.00in /  0mm
01:14 15.2 °F /  -9.3 °C 6.5 °F /  -14.2 °C 30.31in /  1026.3hPa West 5.0mph /  8km/h 10.0mph /  16.1km/h 68% 0.00in /  0mm
01:19 15.2 °F /  -9.3 °C 6.5 °F /  -14.2 °C 30.31in /  1026.3hPa West 4.0mph /  6.4km/h 9.0mph /  14.5km/h 68% 0.00in /  0mm
01:24 15.3 °F /  -9.3 °C 6.6 °F /  -14.1 °C 30.31in /  1026.3hPa WNW 5.0mph /  8km/h 12.0mph /  19.3km/h 68% 0.00in /  0mm
01:29 15.3 °F /  -9.3 °C 6.3 °F /  -14.3 °C 30.31in /  1026.3hPa SW 9.0mph /  14.5km/h 12.0mph /  19.3km/h 67% 0.00in /  0mm
01:34 15.4 °F /  -9.2 °C 6.4 °F /  -14.2 °C 30.31in /  1026.3hPa West 8.0mph /  12.9km/h 12.0mph /  19.3km/h 67% 0.00in /  0mm
01:39 15.4 °F /  -9.2 °C 6.4 °F /  -14.2 °C 30.31in /  1026.3hPa WSW 4.0mph /  6.4km/h 9.0mph /  14.5km/h 67% 0.00in /  0mm
01:44 15.5 °F /  -9.2 °C 6.5 °F /  -14.2 °C 30.31in /  1026.3hPa WNW 6.0mph /  9.7km/h 12.0mph /  19.3km/h 67% 0.00in /  0mm
01:49 15.5 °F /  -9.2 °C 6.5 °F /  -14.2 °C 30.31in /  1026.3hPa WSW 5.0mph /  8km/h 12.0mph /  19.3km/h 67% 0.00in /  0mm
01:54 15.6 °F /  -9.1 °C 6.6 °F /  -14.1 °C 30.31in /  1026.3hPa WNW 4.0mph /  6.4km/h 9.0mph /  14.5km/h 67% 0.00in /  0mm
01:59 15.6 °F /  -9.1 °C 6.6 °F /  -14.1 °C 30.31in /  1026.3hPa West 5.0mph /  8km/h 14.0mph /  22.5km/h 67% 0.00in /  0mm
02:04 15.6 °F /  -9.1 °C 6.6 °F /  -14.1 °C 30.31in /  1026.3hPa West 6.0mph /  9.7km/h 14.0mph /  22.5km/h 67% 0.00in /  0mm
02:09 15.7 °F /  -9.1 °C 6.7 °F /  -14.1 °C 30.31in /  1026.3hPa West 6.0mph /  9.7km/h 15.0mph /  24.1km/h 67% 0.00in /  0mm
02:14 15.7 °F /  -9.1 °C 6.7 °F /  -14.1 °C 30.31in /  1026.3hPa West 6.0mph /  9.7km/h 15.0mph /  24.1km/h 67% 0.00in /  0mm
02:19 15.7 °F /  -9.1 °C 6.7 °F /  -14.1 °C 30.31in /  1026.3hPa West 4.0mph /  6.4km/h 11.0mph /  17.7km/h 67% 0.00in /  0mm
02:24 15.7 °F /  -9.1 °C 6.7 °F /  -14.1 °C 30.31in /  1026.3hPa WNW 3.0mph /  4.8km/h 12.0mph /  19.3km/h 67% 0.00in /  0mm
02:29 15.7 °F /  -9.1 °C 6.7 °F /  -14.1 °C 30.31in /  1026.3hPa WNW 5.0mph /  8km/h 13.0mph /  20.9km/h 67% 0.00in /  0mm
02:34 15.7 °F /  -9.1 °C 6.7 °F /  -14.1 °C 30.31in /  1026.3hPa West 5.0mph /  8km/h 13.0mph /  20.9km/h 67% 0.00in /  0mm
02:39 15.7 °F /  -9.1 °C 6.7 °F /  -14.1 °C 30.31in /  1026.3hPa West 5.0mph /  8km/h 11.0mph /  17.7km/h 67% 0.00in /  0mm
02:44 15.7 °F /  -9.1 °C 7.0 °F /  -13.9 °C 30.31in /  1026.3hPa West 5.0mph /  8km/h 10.0mph /  16.1km/h 68% 0.00in /  0mm
02:49 15.6 °F /  -9.1 °C 6.9 °F /  -13.9 °C 30.32in /  1026.6hPa West 5.0mph /  8km/h 11.0mph /  17.7km/h 68% 0.00in /  0mm
02:54 15.7 °F /  -9.1 °C 7.0 °F /  -13.9 °C 30.31in /  1026.3hPa WSW 5.0mph /  8km/h 10.0mph /  16.1km/h 68% 0.00in /  0mm
02:59 15.6 °F /  -9.1 °C 6.9 °F /  -13.9 °C 30.31in /  1026.3hPa West 4.0mph /  6.4km/h 13.0mph /  20.9km/h 68% 0.00in /  0mm
03:04 15.5 °F /  -9.2 °C 6.8 °F /  -14 °C 30.31in /  1026.3hPa West 6.0mph /  9.7km/h 13.0mph /  20.9km/h 68% 0.00in /  0mm
03:09 15.5 °F /  -9.2 °C 6.8 °F /  -14 °C 30.32in /  1026.6hPa West 11.0mph /  17.7km/h 12.0mph /  19.3km/h 68% 0.00in /  0mm
03:14 15.4 °F /  -9.2 °C 6.7 °F /  -14.1 °C 30.31in /  1026.3hPa West 7.0mph /  11.3km/h 14.0mph /  22.5km/h 68% 0.00in /  0mm
03:19 15.5 °F /  -9.2 °C 6.8 °F /  -14 °C 30.31in /  1026.3hPa WSW 8.0mph /  12.9km/h 10.0mph /  16.1km/h 68% 0.00in /  0mm
03:24 15.4 °F /  -9.2 °C 7.0 °F /  -13.9 °C 30.31in /  1026.3hPa SW 6.0mph /  9.7km/h 9.0mph /  14.5km/h 69% 0.00in /  0mm
03:29 15.4 °F /  -9.2 °C 7.0 °F /  -13.9 °C 30.31in /  1026.3hPa WSW 4.0mph /  6.4km/h 13.0mph /  20.9km/h 69% 0.00in /  0mm
03:34 15.3 °F /  -9.3 °C 6.9 °F /  -13.9 °C 30.31in /  1026.3hPa WSW 7.0mph /  11.3km/h 13.0mph /  20.9km/h 69% 0.00in /  0mm
03:39 15.3 °F /  -9.3 °C 6.9 °F /  -13.9 °C 30.31in /  1026.3hPa West 7.0mph /  11.3km/h 15.0mph /  24.1km/h 69% 0.00in /  0mm
03:44 15.3 °F /  -9.3 °C 6.9 °F /  -13.9 °C 30.31in /  1026.3hPa West 7.0mph /  11.3km/h 15.0mph /  24.1km/h 69% 0.00in /  0mm
03:54 15.2 °F /  -9.3 °C 7.2 °F /  -13.8 °C 30.31in /  1026.3hPa SW 4.0mph /  6.4km/h 13.0mph /  20.9km/h 70% 0.00in /  0mm
03:59 15.1 °F /  -9.4 °C 7.1 °F /  -13.8 °C 30.31in /  1026.3hPa WSW 7.0mph /  11.3km/h 18.0mph /  29km/h 70% 0.00in /  0mm
04:04 15.0 °F /  -9.4 °C 7.0 °F /  -13.9 °C 30.31in /  1026.3hPa West 5.0mph /  8km/h 15.0mph /  24.1km/h 70% 0.00in /  0mm
04:09 14.9 °F /  -9.5 °C 6.9 °F /  -13.9 °C 30.30in /  1026hPa WSW 7.0mph /  11.3km/h 15.0mph /  24.1km/h 70% 0.00in /  0mm
04:14 14.9 °F /  -9.5 °C 6.9 °F /  -13.9 °C 30.31in /  1026.3hPa WSW 7.0mph /  11.3km/h 14.0mph /  22.5km/h 70% 0.00in /  0mm
04:19 14.9 °F /  -9.5 °C 6.9 °F /  -13.9 °C 30.30in /  1026hPa West 8.0mph /  12.9km/h 10.0mph /  16.1km/h 70% 0.00in /  0mm
04:29 14.8 °F /  -9.6 °C 6.8 °F /  -14 °C 30.31in /  1026.3hPa WSW 11.0mph /  17.7km/h 13.0mph /  20.9km/h 70% 0.00in /  0mm
04:34 14.8 °F /  -9.6 °C 6.8 °F /  -14 °C 30.31in /  1026.3hPa West 5.0mph /  8km/h 15.0mph /  24.1km/h 70% 0.00in /  0mm
04:39 14.8 °F /  -9.6 °C 6.8 °F /  -14 °C 30.31in /  1026.3hPa West 12.0mph /  19.3km/h 12.0mph /  19.3km/h 70% 0.00in /  0mm
04:44 14.8 °F /  -9.6 °C 6.8 °F /  -14 °C 30.31in /  1026.3hPa West 7.0mph /  11.3km/h 14.0mph /  22.5km/h 70% 0.00in /  0mm
04:49 14.7 °F /  -9.6 °C 6.7 °F /  -14.1 °C 30.31in /  1026.3hPa West 5.0mph /  8km/h 13.0mph /  20.9km/h 70% 0.00in /  0mm
04:54 14.7 °F /  -9.6 °C 6.7 °F /  -14.1 °C 30.31in /  1026.3hPa WSW 4.0mph /  6.4km/h 9.0mph /  14.5km/h 70% 0.00in /  0mm
04:59 14.6 °F /  -9.7 °C 6.6 °F /  -14.1 °C 30.31in /  1026.3hPa West 5.0mph /  8km/h 8.0mph /  12.9km/h 70% 0.00in /  0mm
05:04 14.6 °F /  -9.7 °C 6.6 °F /  -14.1 °C 30.31in /  1026.3hPa SW 7.0mph /  11.3km/h 8.0mph /  12.9km/h 70% 0.00in /  0mm
05:09 14.5 °F /  -9.7 °C 6.8 °F /  -14 °C 30.31in /  1026.3hPa WSW 4.0mph /  6.4km/h 8.0mph /  12.9km/h 71% 0.00in /  0mm
05:14 14.4 °F /  -9.8 °C 6.7 °F /  -14.1 °C 30.31in /  1026.3hPa West 5.0mph /  8km/h 12.0mph /  19.3km/h 71% 0.00in /  0mm
05:19 14.4 °F /  -9.8 °C 6.7 °F /  -14.1 °C 30.31in /  1026.3hPa West 6.0mph /  9.7km/h 12.0mph /  19.3km/h 71% 0.00in /  0mm
05:24 14.4 °F /  -9.8 °C 6.7 °F /  -14.1 °C 30.31in /  1026.3hPa West 5.0mph /  8km/h 10.0mph /  16.1km/h 71% 0.00in /  0mm
05:29 14.4 °F /  -9.8 °C 6.7 °F /  -14.1 °C 30.31in /  1026.3hPa West 4.0mph /  6.4km/h 10.0mph /  16.1km/h 71% 0.00in /  0mm
05:34 14.4 °F /  -9.8 °C 6.7 °F /  -14.1 °C 30.31in /  1026.3hPa West 5.0mph /  8km/h 12.0mph /  19.3km/h 71% 0.00in /  0mm
05:39 14.4 °F /  -9.8 °C 6.7 °F /  -14.1 °C 30.31in /  1026.3hPa SW 6.0mph /  9.7km/h 10.0mph /  16.1km/h 71% 0.00in /  0mm
05:44 14.4 °F /  -9.8 °C 6.7 °F /  -14.1 °C 30.31in /  1026.3hPa WSW 5.0mph /  8km/h 10.0mph /  16.1km/h 71% 0.00in /  0mm
05:49 14.4 °F /  -9.8 °C 7.0 °F /  -13.9 °C 30.30in /  1026hPa WSW 6.0mph /  9.7km/h 13.0mph /  20.9km/h 72% 0.00in /  0mm
05:54 14.3 °F /  -9.8 °C 6.9 °F /  -13.9 °C 30.31in /  1026.3hPa West 7.0mph /  11.3km/h 13.0mph /  20.9km/h 72% 0.00in /  0mm
05:59 14.2 °F /  -9.9 °C 6.8 °F /  -14 °C 30.31in /  1026.3hPa WSW 3.0mph /  4.8km/h 10.0mph /  16.1km/h 72% 0.00in /  0mm
06:04 14.2 °F /  -9.9 °C 7.1 °F /  -13.8 °C 30.31in /  1026.3hPa WSW 3.0mph /  4.8km/h 10.0mph /  16.1km/h 73% 0.00in /  0mm
06:09 14.2 °F /  -9.9 °C 7.1 °F /  -13.8 °C 30.31in /  1026.3hPa West 3.0mph /  4.8km/h 8.0mph /  12.9km/h 73% 0.00in /  0mm
06:14 14.3 °F /  -9.8 °C 7.5 °F /  -13.6 °C 30.32in /  1026.6hPa WSW 4.0mph /  6.4km/h 8.0mph /  12.9km/h 74% 0.00in /  0mm
06:19 14.4 °F /  -9.8 °C 7.9 °F /  -13.4 °C 30.31in /  1026.3hPa WSW 5.0mph /  8km/h 10.0mph /  16.1km/h 75% 0.00in /  0mm
06:24 14.3 °F /  -9.8 °C 8.1 °F /  -13.3 °C 30.31in /  1026.3hPa WSW 5.0mph /  8km/h 10.0mph /  16.1km/h 76% 0.00in /  0mm
06:29 14.3 °F /  -9.8 °C 8.4 °F /  -13.1 °C 30.31in /  1026.3hPa WSW 3.0mph /  4.8km/h 10.0mph /  16.1km/h 77% 0.00in /  0mm
06:34 14.4 °F /  -9.8 °C 8.8 °F /  -12.9 °C 30.31in /  1026.3hPa WSW 5.0mph /  8km/h 10.0mph /  16.1km/h 78% 0.00in /  0mm
06:39 14.5 °F /  -9.7 °C 9.2 °F /  -12.7 °C 30.31in /  1026.3hPa WSW 1.0mph /  1.6km/h 8.0mph /  12.9km/h 79% 0.00in /  0mm
06:44 14.6 °F /  -9.7 °C 9.3 °F /  -12.6 °C 30.31in /  1026.3hPa West 6.0mph /  9.7km/h 9.0mph /  14.5km/h 79% 0.00in /  0mm
06:49 14.7 °F /  -9.6 °C 9.6 °F /  -12.4 °C 30.32in /  1026.6hPa WSW 5.0mph /  8km/h 11.0mph /  17.7km/h 80% 0.00in /  0mm
06:54 15.0 °F /  -9.4 °C 9.9 °F /  -12.3 °C 30.32in /  1026.6hPa WSW 5.0mph /  8km/h 11.0mph /  17.7km/h 80% 0.00in /  0mm
06:59 15.1 °F /  -9.4 °C 10.3 °F /  -12.1 °C 30.32in /  1026.6hPa WSW 6.0mph /  9.7km/h 15.0mph /  24.1km/h 81% 0.00in /  0mm
07:04 15.3 °F /  -9.3 °C 10.5 °F /  -11.9 °C 30.32in /  1026.6hPa WSW 5.0mph /  8km/h 14.0mph /  22.5km/h 81% 0.00in /  0mm
07:09 15.4 °F /  -9.2 °C 10.6 °F /  -11.9 °C 30.31in /  1026.3hPa WSW 9.0mph /  14.5km/h 13.0mph /  20.9km/h 81% 0.00in /  0mm
07:14 15.5 °F /  -9.2 °C 11.0 °F /  -11.7 °C 30.31in /  1026.3hPa SW 6.0mph /  9.7km/h 14.0mph /  22.5km/h 82% 0.00in /  0mm
07:19 15.5 °F /  -9.2 °C 11.0 °F /  -11.7 °C 30.31in /  1026.3hPa WSW 7.0mph /  11.3km/h 14.0mph /  22.5km/h 82% 0.00in /  0mm
07:24 15.4 °F /  -9.2 °C 10.9 °F /  -11.7 °C 30.31in /  1026.3hPa WSW 7.0mph /  11.3km/h 14.0mph /  22.5km/h 82% 0.00in /  0mm
07:29 15.4 °F /  -9.2 °C 10.9 °F /  -11.7 °C 30.31in /  1026.3hPa West 6.0mph /  9.7km/h 15.0mph /  24.1km/h 82% 0.00in /  0mm
07:34 15.2 °F /  -9.3 °C 10.7 °F /  -11.8 °C 30.32in /  1026.6hPa West 7.0mph /  11.3km/h 13.0mph /  20.9km/h 82% 0.00in /  0mm
07:39 15.2 °F /  -9.3 °C 10.7 °F /  -11.8 °C 30.31in /  1026.3hPa SW 4.0mph /  6.4km/h 13.0mph /  20.9km/h 82% 0.00in /  0mm
07:44 15.2 °F /  -9.3 °C 11.0 °F /  -11.7 °C 30.31in /  1026.3hPa WSW 5.0mph /  8km/h 16.0mph /  25.7km/h 83% 0.00in /  0mm
07:49 15.3 °F /  -9.3 °C 11.1 °F /  -11.6 °C 30.31in /  1026.3hPa SW 8.0mph /  12.9km/h 13.0mph /  20.9km/h 83% 0.00in /  0mm
07:54 15.4 °F /  -9.2 °C 11.2 °F /  -11.6 °C 30.31in /  1026.3hPa WSW 8.0mph /  12.9km/h 15.0mph /  24.1km/h 83% 0.00in /  0mm
07:59 15.6 °F /  -9.1 °C 11.4 °F /  -11.4 °C 30.32in /  1026.6hPa WSW 8.0mph /  12.9km/h 15.0mph /  24.1km/h 83% 0.00in /  0mm
08:04 15.7 °F /  -9.1 °C 11.5 °F /  -11.4 °C 30.32in /  1026.6hPa WSW 7.0mph /  11.3km/h 14.0mph /  22.5km/h 83% 0.00in /  0mm
08:09 15.8 °F /  -9 °C 11.6 °F /  -11.3 °C 30.32in /  1026.6hPa WSW 7.0mph /  11.3km/h 14.0mph /  22.5km/h 83% 0.00in /  0mm
08:14 15.9 °F /  -8.9 °C 11.7 °F /  -11.3 °C 30.32in /  1026.6hPa WSW 7.0mph /  11.3km/h 13.0mph /  20.9km/h 83% 0.00in /  0mm
08:19 15.9 °F /  -8.9 °C 11.7 °F /  -11.3 °C 30.32in /  1026.6hPa WSW 8.0mph /  12.9km/h 14.0mph /  22.5km/h 83% 0.00in /  0mm
08:24 15.9 °F /  -8.9 °C 11.9 °F /  -11.2 °C 30.32in /  1026.6hPa SW 8.0mph /  12.9km/h 14.0mph /  22.5km/h 84% 0.00in /  0mm
08:29 16.1 °F /  -8.8 °C 12.1 °F /  -11.1 °C 30.32in /  1026.6hPa SW 5.0mph /  8km/h 12.0mph /  19.3km/h 84% 0.00in /  0mm
08:34 16.1 °F /  -8.8 °C 11.8 °F /  -11.2 °C 30.32in /  1026.6hPa WSW 11.0mph /  17.7km/h 15.0mph /  24.1km/h 83% 0.00in /  0mm
08:39 16.1 °F /  -8.8 °C 11.8 °F /  -11.2 °C 30.32in /  1026.6hPa WSW 8.0mph /  12.9km/h 13.0mph /  20.9km/h 83% 0.00in /  0mm
08:44 16.0 °F /  -8.9 °C 11.7 °F /  -11.3 °C 30.32in /  1026.6hPa SW 8.0mph /  12.9km/h 14.0mph /  22.5km/h 83% 0.00in /  0mm
08:49 16.1 °F /  -8.8 °C 11.6 °F /  -11.3 °C 30.32in /  1026.6hPa SW 7.0mph /  11.3km/h 12.0mph /  19.3km/h 82% 0.00in /  0mm
08:54 16.3 °F /  -8.7 °C 11.8 °F /  -11.2 °C 30.32in /  1026.6hPa SW 9.0mph /  14.5km/h 14.0mph /  22.5km/h 82% 0.00in /  0mm
08:59 16.5 °F /  -8.6 °C 11.7 °F /  -11.3 °C 30.32in /  1026.6hPa SW 7.0mph /  11.3km/h 14.0mph /  22.5km/h 81% 0.00in /  0mm
09:04 16.4 °F /  -8.7 °C 11.0 °F /  -11.7 °C 30.32in /  1026.6hPa SW 8.0mph /  12.9km/h 16.0mph /  25.7km/h 79% 0.00in /  0mm
09:09 17.0 °F /  -8.3 °C 11.3 °F /  -11.5 °C 30.32in /  1026.6hPa SW 8.0mph /  12.9km/h 16.0mph /  25.7km/h 78% 0.00in /  0mm
09:14 17.0 °F /  -8.3 °C 11.0 °F /  -11.7 °C 30.32in /  1026.6hPa SW 8.0mph /  12.9km/h 16.0mph /  25.7km/h 77% 0.00in /  0mm
09:19 17.2 °F /  -8.2 °C 11.2 °F /  -11.6 °C 30.32in /  1026.6hPa South 5.0mph /  8km/h 14.0mph /  22.5km/h 77% 0.00in /  0mm
09:24 17.9 °F /  -7.8 °C 11.3 °F /  -11.5 °C 30.32in /  1026.6hPa West 7.0mph /  11.3km/h 13.0mph /  20.9km/h 75% 0.00in /  0mm
09:29 18.4 °F /  -7.6 °C 11.5 °F /  -11.4 °C 30.32in /  1026.6hPa SW 7.0mph /  11.3km/h 19.0mph /  30.6km/h 74% 0.00in /  0mm
09:34 18.3 °F /  -7.6 °C 10.8 °F /  -11.8 °C 30.32in /  1026.6hPa WSW 8.0mph /  12.9km/h 19.0mph /  30.6km/h 72% 0.00in /  0mm
09:39 18.1 °F /  -7.7 °C 10.3 °F /  -12.1 °C 30.32in /  1026.6hPa SW 7.0mph /  11.3km/h 18.0mph /  29km/h 71% 0.00in /  0mm
09:44 18.1 °F /  -7.7 °C 10.0 °F /  -12.2 °C 30.31in /  1026.3hPa West 8.0mph /  12.9km/h 21.0mph /  33.8km/h 70% 0.00in /  0mm
09:49 18.6 °F /  -7.4 °C 10.4 °F /  -12 °C 30.32in /  1026.6hPa WSW 14.0mph /  22.5km/h 20.0mph /  32.2km/h 70% 0.00in /  0mm
09:54 19.0 °F /  -7.2 °C 10.5 °F /  -11.9 °C 30.31in /  1026.3hPa SW 17.0mph /  27.4km/h 19.0mph /  30.6km/h 69% 0.00in /  0mm
09:59 19.1 °F /  -7.2 °C 10.6 °F /  -11.9 °C 30.31in /  1026.3hPa South 14.0mph /  22.5km/h 21.0mph /  33.8km/h 69% 0.00in /  0mm
10:04 19.0 °F /  -7.2 °C 10.2 °F /  -12.1 °C 30.31in /  1026.3hPa SW 11.0mph /  17.7km/h 21.0mph /  33.8km/h 68% 0.00in /  0mm
10:09 18.9 °F /  -7.3 °C 10.1 °F /  -12.2 °C 30.31in /  1026.3hPa SW 11.0mph /  17.7km/h 24.0mph /  38.6km/h 68% 0.00in /  0mm
10:14 19.0 °F /  -7.2 °C 9.8 °F /  -12.3 °C 30.30in /  1026hPa SW 10.0mph /  16.1km/h 24.0mph /  38.6km/h 67% 0.00in /  0mm
10:19 18.6 °F /  -7.4 °C 9.8 °F /  -12.3 °C 30.30in /  1026hPa SW 11.0mph /  17.7km/h 26.0mph /  41.8km/h 68% 0.00in /  0mm
10:24 18.8 °F /  -7.3 °C 10.0 °F /  -12.2 °C 30.31in /  1026.3hPa SW 11.0mph /  17.7km/h 26.0mph /  41.8km/h 68% 0.00in /  0mm
10:29 18.6 °F /  -7.4 °C 9.8 °F /  -12.3 °C 30.31in /  1026.3hPa WSW 12.0mph /  19.3km/h 22.0mph /  35.4km/h 68% 0.00in /  0mm
10:34 18.5 °F /  -7.5 °C 9.7 °F /  -12.4 °C 30.30in /  1026hPa West 14.0mph /  22.5km/h 20.0mph /  32.2km/h 68% 0.00in /  0mm
10:39 18.6 °F /  -7.4 °C 9.8 °F /  -12.3 °C 30.30in /  1026hPa South 7.0mph /  11.3km/h 16.0mph /  25.7km/h 68% 0.00in /  0mm
10:44 18.5 °F /  -7.5 °C 9.7 °F /  -12.4 °C 30.30in /  1026hPa WSW 10.0mph /  16.1km/h 18.0mph /  29km/h 68% 0.00in /  0mm
10:49 18.3 °F /  -7.6 °C 9.5 °F /  -12.5 °C 30.30in /  1026hPa West 6.0mph /  9.7km/h 17.0mph /  27.4km/h 68% 0.00in /  0mm
10:54 18.4 °F /  -7.6 °C 9.6 °F /  -12.4 °C 30.30in /  1026hPa SSW 7.0mph /  11.3km/h 20.0mph /  32.2km/h 68% 0.00in /  0mm
10:59 18.5 °F /  -7.5 °C 9.7 °F /  -12.4 °C 30.31in /  1026.3hPa SW 9.0mph /  14.5km/h 21.0mph /  33.8km/h 68% 0.00in /  0mm
11:04 19.6 °F /  -6.9 °C 10.4 °F /  -12 °C 30.30in /  1026hPa WSW 5.0mph /  8km/h 20.0mph /  32.2km/h 67% 0.00in /  0mm
11:09 20.1 °F /  -6.6 °C 10.6 °F /  -11.9 °C 30.30in /  1026hPa SW 10.0mph /  16.1km/h 20.0mph /  32.2km/h 66% 0.00in /  0mm
11:14 20.2 °F /  -6.6 °C 10.6 °F /  -11.9 °C 30.30in /  1026hPa SW 11.0mph /  17.7km/h 23.0mph /  37km/h 66% 0.00in /  0mm
11:19 20.6 °F /  -6.3 °C 11.0 °F /  -11.7 °C 30.29in /  1025.6hPa SW 10.0mph /  16.1km/h 23.0mph /  37km/h 66% 0.00in /  0mm
11:24 20.4 °F /  -6.4 °C 10.1 °F /  -12.2 °C 30.29in /  1025.6hPa SW 9.0mph /  14.5km/h 18.0mph /  29km/h 64% 0.00in /  0mm
11:29 20.2 °F /  -6.6 °C 10.3 °F /  -12.1 °C 30.29in /  1025.6hPa WSW 8.0mph /  12.9km/h 16.0mph /  25.7km/h 65% 0.00in /  0mm
11:34 20.2 °F /  -6.6 °C 10.6 °F /  -11.9 °C 30.29in /  1025.6hPa West 5.0mph /  8km/h 16.0mph /  25.7km/h 66% 0.00in /  0mm
11:39 20.3 °F /  -6.5 °C 10.4 °F /  -12 °C 30.28in /  1025.3hPa SW 8.0mph /  12.9km/h 20.0mph /  32.2km/h 65% 0.00in /  0mm
11:44 20.6 °F /  -6.3 °C 10.7 °F /  -11.8 °C 30.28in /  1025.3hPa SW 9.0mph /  14.5km/h 20.0mph /  32.2km/h 65% 0.00in /  0mm
11:49 20.7 °F /  -6.3 °C 10.8 °F /  -11.8 °C 30.28in /  1025.3hPa SW 8.0mph /  12.9km/h 16.0mph /  25.7km/h 65% 0.00in /  0mm
11:54 21.1 °F /  -6.1 °C 11.2 °F /  -11.6 °C 30.28in /  1025.3hPa SW 6.0mph /  9.7km/h 11.0mph /  17.7km/h 65% 0.00in /  0mm
11:59 20.9 °F /  -6.2 °C 10.6 °F /  -11.9 °C 30.27in /  1024.9hPa West 8.0mph /  12.9km/h 21.0mph /  33.8km/h 64% 0.00in /  0mm
12:04 20.9 °F /  -6.2 °C 11.0 °F /  -11.7 °C 30.27in /  1024.9hPa WSW 8.0mph /  12.9km/h 21.0mph /  33.8km/h 65% 0.00in /  0mm
12:09 21.2 °F /  -6 °C 10.9 °F /  -11.7 °C 30.27in /  1024.9hPa SW 10.0mph /  16.1km/h 21.0mph /  33.8km/h 64% 0.00in /  0mm
12:14 21.7 °F /  -5.7 °C 11.0 °F /  -11.7 °C 30.27in /  1024.9hPa SW 11.0mph /  17.7km/h 21.0mph /  33.8km/h 63% 0.00in /  0mm
12:19 22.2 °F /  -5.4 °C 11.9 °F /  -11.2 °C 30.26in /  1024.6hPa SW 10.0mph /  16.1km/h 20.0mph /  32.2km/h 64% 0.00in /  0mm
12:24 22.2 °F /  -5.4 °C 11.5 °F /  -11.4 °C 30.26in /  1024.6hPa SW 10.0mph /  16.1km/h 20.0mph /  32.2km/h 63% 0.00in /  0mm
12:29 22.1 °F /  -5.5 °C 11.4 °F /  -11.4 °C 30.25in /  1024.3hPa West 9.0mph /  14.5km/h 21.0mph /  33.8km/h 63% 0.00in /  0mm
12:34 21.9 °F /  -5.6 °C 11.2 °F /  -11.6 °C 30.26in /  1024.6hPa SW 14.0mph /  22.5km/h 22.0mph /  35.4km/h 63% 0.00in /  0mm
12:39 21.5 °F /  -5.8 °C 11.2 °F /  -11.6 °C 30.25in /  1024.3hPa SW 13.0mph /  20.9km/h 21.0mph /  33.8km/h 64% 0.00in /  0mm
12:44 21.5 °F /  -5.8 °C 11.5 °F /  -11.4 °C 30.25in /  1024.3hPa SW 10.0mph /  16.1km/h 21.0mph /  33.8km/h 65% 0.00in /  0mm
12:49 21.7 °F /  -5.7 °C 11.7 °F /  -11.3 °C 30.25in /  1024.3hPa South 14.0mph /  22.5km/h 16.0mph /  25.7km/h 65% 0.00in /  0mm
12:54 21.6 °F /  -5.8 °C 11.3 °F /  -11.5 °C 30.25in /  1024.3hPa SW 9.0mph /  14.5km/h 18.0mph /  29km/h 64% 0.00in /  0mm
12:59 21.6 °F /  -5.8 °C 11.3 °F /  -11.5 °C 30.24in /  1023.9hPa SW 9.0mph /  14.5km/h 18.0mph /  29km/h 64% 0.00in /  0mm
13:04 21.5 °F /  -5.8 °C 11.2 °F /  -11.6 °C 30.24in /  1023.9hPa West 6.0mph /  9.7km/h 20.0mph /  32.2km/h 64% 0.00in /  0mm
13:09 21.4 °F /  -5.9 °C 11.1 °F /  -11.6 °C 30.24in /  1023.9hPa WSW 9.0mph /  14.5km/h 17.0mph /  27.4km/h 64% 0.00in /  0mm
13:14 21.8 °F /  -5.7 °C 11.5 °F /  -11.4 °C 30.24in /  1023.9hPa SW 10.0mph /  16.1km/h 17.0mph /  27.4km/h 64% 0.00in /  0mm
13:19 22.0 °F /  -5.6 °C 11.7 °F /  -11.3 °C 30.24in /  1023.9hPa SW 10.0mph /  16.1km/h 16.0mph /  25.7km/h 64% 0.00in /  0mm
13:24 22.7 °F /  -5.2 °C 12.7 °F /  -10.7 °C 30.24in /  1023.9hPa SW 9.0mph /  14.5km/h 18.0mph /  29km/h 65% 0.00in /  0mm
13:29 22.5 °F /  -5.3 °C 11.4 °F /  -11.4 °C 30.24in /  1023.9hPa SW 7.0mph /  11.3km/h 17.0mph /  27.4km/h 62% 0.00in /  0mm
13:34 22.4 °F /  -5.3 °C 11.7 °F /  -11.3 °C 30.23in /  1023.6hPa WSW 10.0mph /  16.1km/h 17.0mph /  27.4km/h 63% 0.00in /  0mm
13:39 22.2 °F /  -5.4 °C 11.5 °F /  -11.4 °C 30.23in /  1023.6hPa WNW 8.0mph /  12.9km/h 17.0mph /  27.4km/h 63% 0.00in /  0mm
13:44 22.2 °F /  -5.4 °C 11.9 °F /  -11.2 °C 30.23in /  1023.6hPa West 9.0mph /  14.5km/h 18.0mph /  29km/h 64% 0.00in /  0mm
13:49 22.2 °F /  -5.4 °C 11.9 °F /  -11.2 °C 30.23in /  1023.6hPa WSW 9.0mph /  14.5km/h 18.0mph /  29km/h 64% 0.00in /  0mm
13:54 22.3 °F /  -5.4 °C 11.6 °F /  -11.3 °C 30.22in /  1023.2hPa WSW 8.0mph /  12.9km/h 16.0mph /  25.7km/h 63% 0.00in /  0mm
13:59 22.4 °F /  -5.3 °C 11.7 °F /  -11.3 °C 30.22in /  1023.2hPa WSW 7.0mph /  11.3km/h 15.0mph /  24.1km/h 63% 0.00in /  0mm
14:04 22.6 °F /  -5.2 °C 11.9 °F /  -11.2 °C 30.22in /  1023.2hPa SSW 5.0mph /  8km/h 13.0mph /  20.9km/h 63% 0.00in /  0mm
14:09 23.2 °F /  -4.9 °C 12.8 °F /  -10.7 °C 30.22in /  1023.2hPa West 10.0mph /  16.1km/h 14.0mph /  22.5km/h 64% 0.00in /  0mm
14:14 23.4 °F /  -4.8 °C 12.6 °F /  -10.8 °C 30.22in /  1023.2hPa WSW 5.0mph /  8km/h 14.0mph /  22.5km/h 63% 0.00in /  0mm
14:19 23.3 °F /  -4.8 °C 12.6 °F /  -10.8 °C 30.21in /  1022.9hPa SW 6.0mph /  9.7km/h 16.0mph /  25.7km/h 63% 0.00in /  0mm
14:24 23.1 °F /  -4.9 °C 12.4 °F /  -10.9 °C 30.21in /  1022.9hPa WSW 7.0mph /  11.3km/h 16.0mph /  25.7km/h 63% 0.00in /  0mm
14:29 23.0 °F /  -5 °C 12.3 °F /  -10.9 °C 30.21in /  1022.9hPa WSW 8.0mph /  12.9km/h 16.0mph /  25.7km/h 63% 0.00in /  0mm
14:34 23.1 °F /  -4.9 °C 12.4 °F /  -10.9 °C 30.21in /  1022.9hPa WSW 8.0mph /  12.9km/h 16.0mph /  25.7km/h 63% 0.00in /  0mm
14:39 23.3 °F /  -4.8 °C 12.9 °F /  -10.6 °C 30.21in /  1022.9hPa SW 7.0mph /  11.3km/h 11.0mph /  17.7km/h 64% 0.00in /  0mm
14:44 23.3 °F /  -4.8 °C 12.6 °F /  -10.8 °C 30.20in /  1022.6hPa SW 8.0mph /  12.9km/h 15.0mph /  24.1km/h 63% 0.00in /  0mm
14:49 23.1 °F /  -4.9 °C 12.4 °F /  -10.9 °C 30.20in /  1022.6hPa SW 7.0mph /  11.3km/h 16.0mph /  25.7km/h 63% 0.00in /  0mm
14:54 23.0 °F /  -5 °C 12.6 °F /  -10.8 °C 30.20in /  1022.6hPa South 11.0mph /  17.7km/h 16.0mph /  25.7km/h 64% 0.00in /  0mm
14:59 22.9 °F /  -5.1 °C 12.9 °F /  -10.6 °C 30.20in /  1022.6hPa SW 7.0mph /  11.3km/h 16.0mph /  25.7km/h 65% 0.00in /  0mm
15:04 22.8 °F /  -5.1 °C 12.8 °F /  -10.7 °C 30.19in /  1022.2hPa SW 6.0mph /  9.7km/h 17.0mph /  27.4km/h 65% 0.00in /  0mm
15:09 22.7 °F /  -5.2 °C 12.7 °F /  -10.7 °C 30.19in /  1022.2hPa WSW 7.0mph /  11.3km/h 14.0mph /  22.5km/h 65% 0.00in /  0mm
15:14 22.7 °F /  -5.2 °C 13.0 °F /  -10.6 °C 30.19in /  1022.2hPa SSW 8.0mph /  12.9km/h 16.0mph /  25.7km/h 66% 0.00in /  0mm
15:19 22.9 °F /  -5.1 °C 13.2 °F /  -10.4 °C 30.19in /  1022.2hPa SW 8.0mph /  12.9km/h 16.0mph /  25.7km/h 66% 0.00in /  0mm
15:24 22.9 °F /  -5.1 °C 13.6 °F /  -10.2 °C 30.19in /  1022.2hPa WSW 7.0mph /  11.3km/h 15.0mph /  24.1km/h 67% 0.00in /  0mm
15:29 23.0 °F /  -5 °C 13.7 °F /  -10.2 °C 30.19in /  1022.2hPa WSW 7.0mph /  11.3km/h 12.0mph /  19.3km/h 67% 0.00in /  0mm
15:34 23.0 °F /  -5 °C 13.7 °F /  -10.2 °C 30.19in /  1022.2hPa SW 10.0mph /  16.1km/h 11.0mph /  17.7km/h 67% 0.00in /  0mm
15:44 23.0 °F /  -5 °C 14.0 °F /  -10 °C 30.19in /  1022.2hPa WSW 7.0mph /  11.3km/h 12.0mph /  19.3km/h 68% 0.00in /  0mm
15:49 23.0 °F /  -5 °C 14.0 °F /  -10 °C 30.18in /  1021.9hPa SW 6.0mph /  9.7km/h 12.0mph /  19.3km/h 68% 0.00in /  0mm
15:54 23.2 °F /  -4.9 °C 14.5 °F /  -9.7 °C 30.18in /  1021.9hPa SW 5.0mph /  8km/h 10.0mph /  16.1km/h 69% 0.00in /  0mm
15:59 23.3 °F /  -4.8 °C 14.6 °F /  -9.7 °C 30.18in /  1021.9hPa SW 1.0mph /  1.6km/h 9.0mph /  14.5km/h 69% 0.00in /  0mm
16:04 23.4 °F /  -4.8 °C 14.7 °F /  -9.6 °C 30.18in /  1021.9hPa WSW 6.0mph /  9.7km/h 14.0mph /  22.5km/h 69% 0.00in /  0mm
16:09 23.3 °F /  -4.8 °C 14.6 °F /  -9.7 °C 30.17in /  1021.6hPa SW 9.0mph /  14.5km/h 12.0mph /  19.3km/h 69% 0.00in /  0mm
16:19 23.4 °F /  -4.8 °C 14.7 °F /  -9.6 °C 30.16in /  1021.2hPa SSW 4.0mph /  6.4km/h 9.0mph /  14.5km/h 69% 0.00in /  0mm
16:24 23.5 °F /  -4.7 °C 14.8 °F /  -9.6 °C 30.17in /  1021.6hPa SSW 5.0mph /  8km/h 9.0mph /  14.5km/h 69% 0.00in /  0mm
16:29 23.7 °F /  -4.6 °C 15.0 °F /  -9.4 °C 30.16in /  1021.2hPa SSW 4.0mph /  6.4km/h 8.0mph /  12.9km/h 69% 0.00in /  0mm
16:34 23.8 °F /  -4.6 °C 15.1 °F /  -9.4 °C 30.16in /  1021.2hPa SW 3.0mph /  4.8km/h 8.0mph /  12.9km/h 69% 0.00in /  0mm
16:39 23.8 °F /  -4.6 °C 15.1 °F /  -9.4 °C 30.15in /  1020.9hPa SSW 3.0mph /  4.8km/h 8.0mph /  12.9km/h 69% 0.00in /  0mm
16:44 23.8 °F /  -4.6 °C 15.1 °F /  -9.4 °C 30.15in /  1020.9hPa SW 6.0mph /  9.7km/h 10.0mph /  16.1km/h 69% 0.00in /  0mm
16:49 23.9 °F /  -4.5 °C 15.2 °F /  -9.3 °C 30.14in /  1020.5hPa SSW 3.0mph /  4.8km/h 6.0mph /  9.7km/h 69% 0.00in /  0mm
16:54 24.0 °F /  -4.4 °C 15.3 °F /  -9.3 °C 30.14in /  1020.5hPa SSW 3.0mph /  4.8km/h 6.0mph /  9.7km/h 69% 0.00in /  0mm
16:59 24.1 °F /  -4.4 °C 15.4 °F /  -9.2 °C 30.14in /  1020.5hPa SSW 3.0mph /  4.8km/h 6.0mph /  9.7km/h 69% 0.00in /  0mm
17:04 24.2 °F /  -4.3 °C 15.5 °F /  -9.2 °C 30.14in /  1020.5hPa SSW 2.0mph /  3.2km/h 7.0mph /  11.3km/h 69% 0.00in /  0mm
17:09 24.3 °F /  -4.3 °C 15.3 °F /  -9.3 °C 30.13in /  1020.2hPa SSW 6.0mph /  9.7km/h 8.0mph /  12.9km/h 68% 0.00in /  0mm
17:14 24.3 °F /  -4.3 °C 15.3 °F /  -9.3 °C 30.13in /  1020.2hPa SSW 7.0mph /  11.3km/h 8.0mph /  12.9km/h 68% 0.00in /  0mm
17:19 24.4 °F /  -4.2 °C 15.3 °F /  -9.3 °C 30.13in /  1020.2hPa South 4.0mph /  6.4km/h 7.0mph /  11.3km/h 68% 0.00in /  0mm
17:24 24.5 °F /  -4.2 °C 15.4 °F /  -9.2 °C 30.12in /  1019.9hPa South 4.0mph /  6.4km/h 7.0mph /  11.3km/h 68% 0.00in /  0mm
17:29 24.7 °F /  -4.1 °C 15.3 °F /  -9.3 °C 30.12in /  1019.9hPa SSW 3.0mph /  4.8km/h 8.0mph /  12.9km/h 67% 0.00in /  0mm
17:34 24.9 °F /  -3.9 °C 15.5 °F /  -9.2 °C 30.12in /  1019.9hPa SSW 6.0mph /  9.7km/h 8.0mph /  12.9km/h 67% 0.00in /  0mm
17:39 25.1 °F /  -3.8 °C 15.7 °F /  -9.1 °C 30.12in /  1019.9hPa SW 4.0mph /  6.4km/h 9.0mph /  14.5km/h 67% 0.00in /  0mm
17:44 25.4 °F /  -3.7 °C 15.6 °F /  -9.1 °C 30.12in /  1019.9hPa SSW 7.0mph /  11.3km/h 11.0mph /  17.7km/h 66% 0.00in /  0mm
17:49 25.6 °F /  -3.6 °C 15.8 °F /  -9 °C 30.12in /  1019.9hPa SSE 4.0mph /  6.4km/h 8.0mph /  12.9km/h 66% 0.00in /  0mm
17:54 25.6 °F /  -3.6 °C 15.8 °F /  -9 °C 30.12in /  1019.9hPa South 3.0mph /  4.8km/h 9.0mph /  14.5km/h 66% 0.00in /  0mm
17:59 25.6 °F /  -3.6 °C 15.8 °F /  -9 °C 30.12in /  1019.9hPa South 6.0mph /  9.7km/h 15.0mph /  24.1km/h 66% 0.00in /  0mm
18:04 25.5 °F /  -3.6 °C 16.1 °F /  -8.8 °C 30.12in /  1019.9hPa South 6.0mph /  9.7km/h 15.0mph /  24.1km/h 67% 0.00in /  0mm
18:09 25.5 °F /  -3.6 °C 16.1 °F /  -8.8 °C 30.12in /  1019.9hPa SSE 6.0mph /  9.7km/h 12.0mph /  19.3km/h 67% 0.00in /  0mm
18:14 25.4 °F /  -3.7 °C 16.0 °F /  -8.9 °C 30.11in /  1019.5hPa SSW 5.0mph /  8km/h 13.0mph /  20.9km/h 67% 0.00in /  0mm
18:19 25.5 °F /  -3.6 °C 16.1 °F /  -8.8 °C 30.11in /  1019.5hPa South 5.0mph /  8km/h 12.0mph /  19.3km/h 67% 0.00in /  0mm
18:24 25.5 °F /  -3.6 °C 16.1 °F /  -8.8 °C 30.11in /  1019.5hPa South 4.0mph /  6.4km/h 9.0mph /  14.5km/h 67% 0.00in /  0mm
18:29 25.5 °F /  -3.6 °C 16.1 °F /  -8.8 °C 30.11in /  1019.5hPa SSW 5.0mph /  8km/h 10.0mph /  16.1km/h 67% 0.00in /  0mm
18:34 25.5 °F /  -3.6 °C 16.1 °F /  -8.8 °C 30.11in /  1019.5hPa South 5.0mph /  8km/h 11.0mph /  17.7km/h 67% 0.00in /  0mm
18:39 25.5 °F /  -3.6 °C 16.1 °F /  -8.8 °C 30.11in /  1019.5hPa SSW 5.0mph /  8km/h 11.0mph /  17.7km/h 67% 0.00in /  0mm
18:44 25.6 °F /  -3.6 °C 16.2 °F /  -8.8 °C 30.10in /  1019.2hPa SSW 5.0mph /  8km/h 11.0mph /  17.7km/h 67% 0.00in /  0mm
18:49 25.6 °F /  -3.6 °C 16.2 °F /  -8.8 °C 30.10in /  1019.2hPa SSW 3.0mph /  4.8km/h 12.0mph /  19.3km/h 67% 0.00in /  0mm
18:54 25.6 °F /  -3.6 °C 16.2 °F /  -8.8 °C 30.10in /  1019.2hPa South 7.0mph /  11.3km/h 10.0mph /  16.1km/h 67% 0.00in /  0mm
18:59 25.6 °F /  -3.6 °C 16.2 °F /  -8.8 °C 30.10in /  1019.2hPa South 6.0mph /  9.7km/h 10.0mph /  16.1km/h 67% 0.00in /  0mm
19:04 25.7 °F /  -3.5 °C 16.3 °F /  -8.7 °C 30.10in /  1019.2hPa South 5.0mph /  8km/h 10.0mph /  16.1km/h 67% 0.00in /  0mm
19:09 25.7 °F /  -3.5 °C 16.3 °F /  -8.7 °C 30.09in /  1018.8hPa South 5.0mph /  8km/h 10.0mph /  16.1km/h 67% 0.00in /  0mm
19:14 25.9 °F /  -3.4 °C 16.1 °F /  -8.8 °C 30.09in /  1018.8hPa SSW 3.0mph /  4.8km/h 11.0mph /  17.7km/h 66% 0.00in /  0mm
19:19 26.1 °F /  -3.3 °C 16.3 °F /  -8.7 °C 30.09in /  1018.8hPa South 7.0mph /  11.3km/h 11.0mph /  17.7km/h 66% 0.00in /  0mm
19:24 26.2 °F /  -3.2 °C 16.4 °F /  -8.7 °C 30.09in /  1018.8hPa SSE 11.0mph /  17.7km/h 15.0mph /  24.1km/h 66% 0.00in /  0mm
19:29 26.4 °F /  -3.1 °C 16.6 °F /  -8.6 °C 30.09in /  1018.8hPa WSW 7.0mph /  11.3km/h 15.0mph /  24.1km/h 66% 0.00in /  0mm
19:34 26.5 °F /  -3.1 °C 16.7 °F /  -8.5 °C 30.08in /  1018.5hPa SSW 7.0mph /  11.3km/h 15.0mph /  24.1km/h 66% 0.00in /  0mm
19:39 26.7 °F /  -2.9 °C 16.9 °F /  -8.4 °C 30.08in /  1018.5hPa SSW 6.0mph /  9.7km/h 12.0mph /  19.3km/h 66% 0.00in /  0mm
19:44 26.8 °F /  -2.9 °C 17.0 °F /  -8.3 °C 30.08in /  1018.5hPa SSW 6.0mph /  9.7km/h 17.0mph /  27.4km/h 66% 0.00in /  0mm
19:49 26.8 °F /  -2.9 °C 17.6 °F /  -8 °C 30.08in /  1018.5hPa SSW 6.0mph /  9.7km/h 17.0mph /  27.4km/h 68% 0.00in /  0mm
19:54 26.8 °F /  -2.9 °C 18.0 °F /  -7.8 °C 30.07in /  1018.2hPa SSE 8.0mph /  12.9km/h 16.0mph /  25.7km/h 69% 0.00in /  0mm
19:59 26.7 °F /  -2.9 °C 18.2 °F /  -7.7 °C 30.07in /  1018.2hPa South 8.0mph /  12.9km/h 14.0mph /  22.5km/h 70% 0.00in /  0mm
20:04 26.7 °F /  -2.9 °C 18.6 °F /  -7.4 °C 30.07in /  1018.2hPa SSW 7.0mph /  11.3km/h 15.0mph /  24.1km/h 71% 0.00in /  0mm
20:09 26.7 °F /  -2.9 °C 18.6 °F /  -7.4 °C 30.06in /  1017.8hPa SSW 7.0mph /  11.3km/h 16.0mph /  25.7km/h 71% 0.00in /  0mm
20:14 26.7 °F /  -2.9 °C 18.9 °F /  -7.3 °C 30.06in /  1017.8hPa SSW 6.0mph /  9.7km/h 16.0mph /  25.7km/h 72% 0.00in /  0mm
20:19 26.7 °F /  -2.9 °C 19.2 °F /  -7.1 °C 30.06in /  1017.8hPa South 9.0mph /  14.5km/h 16.0mph /  25.7km/h 73% 0.00in /  0mm
20:24 26.7 °F /  -2.9 °C 19.8 °F /  -6.8 °C 30.06in /  1017.8hPa South 4.0mph /  6.4km/h 16.0mph /  25.7km/h 75% 0.00in /  0mm
20:29 26.7 °F /  -2.9 °C 19.8 °F /  -6.8 °C 30.05in /  1017.5hPa South 5.0mph /  8km/h 16.0mph /  25.7km/h 75% 0.00in /  0mm
20:34 26.9 °F /  -2.8 °C 20.3 °F /  -6.5 °C 30.05in /  1017.5hPa SSW 6.0mph /  9.7km/h 18.0mph /  29km/h 76% 0.00in /  0mm
20:39 26.9 °F /  -2.8 °C 20.3 °F /  -6.5 °C 30.05in /  1017.5hPa SSW 8.0mph /  12.9km/h 18.0mph /  29km/h 76% 0.00in /  0mm
20:44 27.1 °F /  -2.7 °C 20.5 °F /  -6.4 °C 30.05in /  1017.5hPa SSW 8.0mph /  12.9km/h 18.0mph /  29km/h 76% 0.00in /  0mm
20:49 27.2 °F /  -2.7 °C 20.6 °F /  -6.3 °C 30.05in /  1017.5hPa SSW 9.0mph /  14.5km/h 20.0mph /  32.2km/h 76% 0.00in /  0mm
20:54 27.3 °F /  -2.6 °C 20.4 °F /  -6.4 °C 30.05in /  1017.5hPa SW 6.0mph /  9.7km/h 16.0mph /  25.7km/h 75% 0.00in /  0mm
20:59 27.4 °F /  -2.6 °C 20.2 °F /  -6.6 °C 30.04in /  1017.2hPa SSW 7.0mph /  11.3km/h 13.0mph /  20.9km/h 74% 0.00in /  0mm
21:04 27.6 °F /  -2.4 °C 20.1 °F /  -6.6 °C 30.04in /  1017.2hPa SSW 7.0mph /  11.3km/h 13.0mph /  20.9km/h 73% 0.00in /  0mm
21:09 27.7 °F /  -2.4 °C 19.8 °F /  -6.8 °C 30.04in /  1017.2hPa South 4.0mph /  6.4km/h 14.0mph /  22.5km/h 72% 0.00in /  0mm
21:14 27.8 °F /  -2.3 °C 19.3 °F /  -7.1 °C 30.04in /  1017.2hPa SSW 4.0mph /  6.4km/h 12.0mph /  19.3km/h 70% 0.00in /  0mm
21:19 28.0 °F /  -2.2 °C 18.8 °F /  -7.3 °C 30.04in /  1017.2hPa SSW 7.0mph /  11.3km/h 19.0mph /  30.6km/h 68% 0.00in /  0mm
21:24 28.2 °F /  -2.1 °C 18.6 °F /  -7.4 °C 30.04in /  1017.2hPa SSW 7.0mph /  11.3km/h 16.0mph /  25.7km/h 67% 0.00in /  0mm
21:29 28.4 °F /  -2 °C 18.1 °F /  -7.7 °C 30.04in /  1017.2hPa SW 7.0mph /  11.3km/h 17.0mph /  27.4km/h 65% 0.00in /  0mm
21:34 28.7 °F /  -1.8 °C 18.1 °F /  -7.7 °C 30.04in /  1017.2hPa SSW 5.0mph /  8km/h 13.0mph /  20.9km/h 64% 0.00in /  0mm
21:39 28.7 °F /  -1.8 °C 17.7 °F /  -7.9 °C 30.04in /  1017.2hPa South 5.0mph /  8km/h 16.0mph /  25.7km/h 63% 0.00in /  0mm
21:44 29.0 °F /  -1.7 °C 18.0 °F /  -7.8 °C 30.04in /  1017.2hPa SSW 7.0mph /  11.3km/h 16.0mph /  25.7km/h 63% 0.00in /  0mm
21:49 29.0 °F /  -1.7 °C 17.6 °F /  -8 °C 30.03in /  1016.8hPa SSW 7.0mph /  11.3km/h 16.0mph /  25.7km/h 62% 0.00in /  0mm
21:54 29.1 °F /  -1.6 °C 18.1 °F /  -7.7 °C 30.03in /  1016.8hPa SSW 7.0mph /  11.3km/h 16.0mph /  25.7km/h 63% 0.00in /  0mm
21:59 29.3 °F /  -1.5 °C 18.3 °F /  -7.6 °C 30.03in /  1016.8hPa SSW 7.0mph /  11.3km/h 16.0mph /  25.7km/h 63% 0.00in /  0mm
22:04 29.4 °F /  -1.4 °C 18.0 °F /  -7.8 °C 30.03in /  1016.8hPa SSW 7.0mph /  11.3km/h 15.0mph /  24.1km/h 62% 0.00in /  0mm
22:09 29.6 °F /  -1.3 °C 17.8 °F /  -7.9 °C 30.02in /  1016.5hPa SSW 7.0mph /  11.3km/h 15.0mph /  24.1km/h 61% 0.00in /  0mm
22:14 29.7 °F /  -1.3 °C 17.5 °F /  -8.1 °C 30.02in /  1016.5hPa South 8.0mph /  12.9km/h 13.0mph /  20.9km/h 60% 0.00in /  0mm
22:19 29.8 °F /  -1.2 °C 17.6 °F /  -8 °C 30.02in /  1016.5hPa SSW 6.0mph /  9.7km/h 13.0mph /  20.9km/h 60% 0.00in /  0mm
22:24 29.9 °F /  -1.2 °C 17.3 °F /  -8.2 °C 30.01in /  1016.1hPa SSE 5.0mph /  8km/h 16.0mph /  25.7km/h 59% 0.00in /  0mm
22:29 30.1 °F /  -1.1 °C 17.1 °F /  -8.3 °C 30.00in /  1015.8hPa South 6.0mph /  9.7km/h 12.0mph /  19.3km/h 58% 0.00in /  0mm
22:34 30.1 °F /  -1.1 °C 17.1 °F /  -8.3 °C 29.99in /  1015.5hPa South 5.0mph /  8km/h 17.0mph /  27.4km/h 58% 0.00in /  0mm
22:39 30.1 °F /  -1.1 °C 16.7 °F /  -8.5 °C 29.99in /  1015.5hPa SSW 6.0mph /  9.7km/h 15.0mph /  24.1km/h 57% 0.00in /  0mm
22:44 30.2 °F /  -1 °C 16.8 °F /  -8.4 °C 29.99in /  1015.5hPa SW 7.0mph /  11.3km/h 11.0mph /  17.7km/h 57% 0.00in /  0mm
22:49 30.4 °F /  -0.9 °C 17.0 °F /  -8.3 °C 29.99in /  1015.5hPa South 6.0mph /  9.7km/h 11.0mph /  17.7km/h 57% 0.00in /  0mm
22:54 30.5 °F /  -0.8 °C 17.1 °F /  -8.3 °C 29.98in /  1015.1hPa SSW 6.0mph /  9.7km/h 12.0mph /  19.3km/h 57% 0.00in /  0mm
22:59 30.8 °F /  -0.7 °C 16.9 °F /  -8.4 °C 29.99in /  1015.5hPa SSW 7.0mph /  11.3km/h 18.0mph /  29km/h 56% 0.00in /  0mm
23:04 31.0 °F /  -0.6 °C 16.3 °F /  -8.7 °C 29.98in /  1015.1hPa SSW 7.0mph /  11.3km/h 18.0mph /  29km/h 54% 0.00in /  0mm
23:09 31.3 °F /  -0.4 °C 16.1 °F /  -8.8 °C 29.98in /  1015.1hPa SSW 8.0mph /  12.9km/h 16.0mph /  25.7km/h 53% 0.00in /  0mm
23:14 31.6 °F /  -0.2 °C 15.5 °F /  -9.2 °C 29.97in /  1014.8hPa SSW 8.0mph /  12.9km/h 19.0mph /  30.6km/h 51% 0.00in /  0mm
23:19 31.8 °F /  -0.1 °C 15.3 °F /  -9.3 °C 29.97in /  1014.8hPa SSW 8.0mph /  12.9km/h 19.0mph /  30.6km/h 50% 0.00in /  0mm
23:24 32.1 °F /  0.1 °C 15.5 °F /  -9.2 °C 29.97in /  1014.8hPa SSW 7.0mph /  11.3km/h 18.0mph /  29km/h 50% 0.00in /  0mm
23:29 32.3 °F /  0.2 °C 14.8 °F /  -9.6 °C 29.97in /  1014.8hPa SW 11.0mph /  17.7km/h 19.0mph /  30.6km/h 48% 0.00in /  0mm
23:34 32.4 °F /  0.2 °C 14.9 °F /  -9.5 °C 29.96in /  1014.4hPa SSW 5.0mph /  8km/h 17.0mph /  27.4km/h 48% 0.00in /  0mm
23:39 32.7 °F /  0.4 °C 14.2 °F /  -9.9 °C 29.96in /  1014.4hPa WSW 9.0mph /  14.5km/h 18.0mph /  29km/h 46% 0.00in /  0mm
23:44 32.8 °F /  0.4 °C 14.3 °F /  -9.8 °C 29.96in /  1014.4hPa South 5.0mph /  8km/h 13.0mph /  20.9km/h 46% 0.00in /  0mm
23:49 32.9 °F /  0.5 °C 13.9 °F /  -10.1 °C 29.95in /  1014.1hPa SSW 6.0mph /  9.7km/h 14.0mph /  22.5km/h 45% 0.00in /  0mm
23:54 33.0 °F /  0.6 °C 13.9 °F /  -10.1 °C 29.95in /  1014.1hPa SSW 7.0mph /  11.3km/h 16.0mph /  25.7km/h 45% 0.00in /  0mm
23:59 33.2 °F /  0.7 °C 14.1 °F /  -9.9 °C 29.94in /  1013.8hPa SSW 7.0mph /  11.3km/h 16.0mph /  25.7km/h 45% 0.00in /  0mm
Buffalo, New York, USA
Compliments of Weather Underground - 2.5 mb